sensor_id;sensor_type;location;lat;lon;timestamp;temperature;humidity
70726;DHT22;58304;53.104;6.022;2022-07-03T00:02:07;17.40;99.90
70726;DHT22;58304;53.104;6.022;2022-07-03T00:04:33;17.40;99.90
70726;DHT22;58304;53.104;6.022;2022-07-03T00:07:06;17.40;99.90
70726;DHT22;58304;53.104;6.022;2022-07-03T00:18:51;17.30;99.90
70726;DHT22;58304;53.104;6.022;2022-07-03T00:22:07;17.20;99.90
70726;DHT22;58304;53.104;6.022;2022-07-03T00:25:05;17.10;99.90
70726;DHT22;58304;53.104;6.022;2022-07-03T01:14:20;15.90;99.90
70726;DHT22;58304;53.104;6.022;2022-07-03T01:40:28;15.40;99.90
70726;DHT22;58304;53.104;6.022;2022-07-03T01:44:11;15.40;99.90
70726;DHT22;58304;53.104;6.022;2022-07-03T01:47:42;15.30;99.90
70726;DHT22;58304;53.104;6.022;2022-07-03T01:50:40;15.20;99.90
70726;DHT22;58304;53.104;6.022;2022-07-03T01:53:09;15.20;99.90
70726;DHT22;58304;53.104;6.022;2022-07-03T01:55:42;15.30;99.90
70726;DHT22;58304;53.104;6.022;2022-07-03T01:58:52;15.30;99.90
70726;DHT22;58304;53.104;6.022;2022-07-03T02:13:34;15.20;99.90
70726;DHT22;58304;53.104;6.022;2022-07-03T02:24:50;15.00;99.90
70726;DHT22;58304;53.104;6.022;2022-07-03T02:27:51;14.90;99.90
70726;DHT22;58304;53.104;6.022;2022-07-03T02:31:04;14.90;99.90
70726;DHT22;58304;53.104;6.022;2022-07-03T02:47:48;14.60;99.90
70726;DHT22;58304;53.104;6.022;2022-07-03T02:53:16;14.50;99.90
70726;DHT22;58304;53.104;6.022;2022-07-03T03:02:23;14.60;99.90
70726;DHT22;58304;53.104;6.022;2022-07-03T03:13:14;14.40;99.90
70726;DHT22;58304;53.104;6.022;2022-07-03T03:16:07;14.50;99.90
70726;DHT22;58304;53.104;6.022;2022-07-03T03:18:58;14.50;99.90
70726;DHT22;58304;53.104;6.022;2022-07-03T03:24:18;14.40;99.90
70726;DHT22;58304;53.104;6.022;2022-07-03T03:26:57;14.40;99.90
70726;DHT22;58304;53.104;6.022;2022-07-03T03:29:29;14.50;99.90
70726;DHT22;58304;53.104;6.022;2022-07-03T03:32:08;14.40;99.90
70726;DHT22;58304;53.104;6.022;2022-07-03T03:35:04;14.50;99.90
70726;DHT22;58304;53.104;6.022;2022-07-03T03:37:36;14.50;99.90
70726;DHT22;58304;53.104;6.022;2022-07-03T03:40:12;14.50;99.90
70726;DHT22;58304;53.104;6.022;2022-07-03T03:43:12;14.60;99.90
70726;DHT22;58304;53.104;6.022;2022-07-03T03:46:20;14.60;99.90
70726;DHT22;58304;53.104;6.022;2022-07-03T03:49:22;14.70;99.90
70726;DHT22;58304;53.104;6.022;2022-07-03T03:52:28;14.70;99.90
70726;DHT22;58304;53.104;6.022;2022-07-03T03:55:24;14.90;99.90
70726;DHT22;58304;53.104;6.022;2022-07-03T03:58:29;14.90;99.90
70726;DHT22;58304;53.104;6.022;2022-07-03T04:01:07;14.80;99.90
70726;DHT22;58304;53.104;6.022;2022-07-03T04:04:14;15.00;99.90
70726;DHT22;58304;53.104;6.022;2022-07-03T04:07:28;15.00;99.90
70726;DHT22;58304;53.104;6.022;2022-07-03T04:10:46;15.20;99.90
70726;DHT22;58304;53.104;6.022;2022-07-03T04:13:32;15.30;99.90
70726;DHT22;58304;53.104;6.022;2022-07-03T04:16:17;15.30;99.90
70726;DHT22;58304;53.104;6.022;2022-07-03T04:18:50;15.50;99.90
70726;DHT22;58304;53.104;6.022;2022-07-03T04:21:22;15.60;99.90
70726;DHT22;58304;53.104;6.022;2022-07-03T04:24:04;15.70;99.90
70726;DHT22;58304;53.104;6.022;2022-07-03T04:27:00;15.70;99.90
70726;DHT22;58304;53.104;6.022;2022-07-03T04:30:14;15.80;99.90
70726;DHT22;58304;53.104;6.022;2022-07-03T04:33:24;15.80;99.90
70726;DHT22;58304;53.104;6.022;2022-07-03T04:36:23;15.80;99.90
70726;DHT22;58304;53.104;6.022;2022-07-03T04:39:57;16.00;99.90
70726;DHT22;58304;53.104;6.022;2022-07-03T04:43:42;16.10;99.90
70726;DHT22;58304;53.104;6.022;2022-07-03T04:47:12;16.20;99.90
70726;DHT22;58304;53.104;6.022;2022-07-03T04:49:44;16.30;99.90
70726;DHT22;58304;53.104;6.022;2022-07-03T04:52:29;16.40;99.90
70726;DHT22;58304;53.104;6.022;2022-07-03T04:55:42;16.40;99.90
70726;DHT22;58304;53.104;6.022;2022-07-03T04:59:00;16.60;99.90
70726;DHT22;58304;53.104;6.022;2022-07-03T05:01:45;16.60;99.90
70726;DHT22;58304;53.104;6.022;2022-07-03T05:05:07;16.70;99.90
70726;DHT22;58304;53.104;6.022;2022-07-03T05:08:00;16.70;99.90
70726;DHT22;58304;53.104;6.022;2022-07-03T05:10:53;16.90;99.90
70726;DHT22;58304;53.104;6.022;2022-07-03T05:13:30;16.90;99.90
70726;DHT22;58304;53.104;6.022;2022-07-03T05:16:29;17.00;99.90
70726;DHT22;58304;53.104;6.022;2022-07-03T05:20:10;17.20;99.90
70726;DHT22;58304;53.104;6.022;2022-07-03T06:54:35;19.60;99.90
70726;DHT22;58304;53.104;6.022;2022-07-03T07:11:18;20.10;99.90
70726;DHT22;58304;53.104;6.022;2022-07-03T07:14:07;20.40;99.90
70726;DHT22;58304;53.104;6.022;2022-07-03T07:23:06;21.00;99.90
70726;DHT22;58304;53.104;6.022;2022-07-03T07:39:51;22.60;99.90
70726;DHT22;58304;53.104;6.022;2022-07-03T07:48:39;23.50;99.90
70726;DHT22;58304;53.104;6.022;2022-07-03T07:51:58;23.70;99.90
70726;DHT22;58304;53.104;6.022;2022-07-03T07:54:24;24.30;99.90
70726;DHT22;58304;53.104;6.022;2022-07-03T07:56:49;24.70;99.90
70726;DHT22;58304;53.104;6.022;2022-07-03T07:59:15;24.90;99.90
70726;DHT22;58304;53.104;6.022;2022-07-03T08:01:41;24.80;99.90
70726;DHT22;58304;53.104;6.022;2022-07-03T08:04:25;24.80;99.90
70726;DHT22;58304;53.104;6.022;2022-07-03T08:07:09;25.00;99.90
70726;DHT22;58304;53.104;6.022;2022-07-03T08:09:34;25.20;99.90
70726;DHT22;58304;53.104;6.022;2022-07-03T08:12:00;25.50;99.90
70726;DHT22;58304;53.104;6.022;2022-07-03T08:14:25;26.00;99.90
70726;DHT22;58304;53.104;6.022;2022-07-03T08:16:51;26.30;99.90
70726;DHT22;58304;53.104;6.022;2022-07-03T08:19:17;26.00;99.90
70726;DHT22;58304;53.104;6.022;2022-07-03T08:21:42;26.20;99.90
70726;DHT22;58304;53.104;6.022;2022-07-03T08:24:08;26.50;99.90
70726;DHT22;58304;53.104;6.022;2022-07-03T08:26:35;26.60;99.90
70726;DHT22;58304;53.104;6.022;2022-07-03T08:29:00;27.00;99.90
70726;DHT22;58304;53.104;6.022;2022-07-03T08:31:26;27.20;99.90
70726;DHT22;58304;53.104;6.022;2022-07-03T08:33:51;27.60;99.90
70726;DHT22;58304;53.104;6.022;2022-07-03T08:36:17;28.10;99.90
70726;DHT22;58304;53.104;6.022;2022-07-03T08:38:43;27.80;99.10
70726;DHT22;58304;53.104;6.022;2022-07-03T08:41:09;27.90;98.00
70726;DHT22;58304;53.104;6.022;2022-07-03T08:43:36;28.00;97.10
70726;DHT22;58304;53.104;6.022;2022-07-03T08:46:05;28.30;95.90
70726;DHT22;58304;53.104;6.022;2022-07-03T08:48:32;28.30;95.00
70726;DHT22;58304;53.104;6.022;2022-07-03T08:51:00;28.90;94.60
70726;DHT22;58304;53.104;6.022;2022-07-03T08:53:26;28.90;95.30
70726;DHT22;58304;53.104;6.022;2022-07-03T08:55:52;29.10;95.40
70726;DHT22;58304;53.104;6.022;2022-07-03T08:58:23;28.90;96.00
70726;DHT22;58304;53.104;6.022;2022-07-03T09:00:49;28.40;93.70
70726;DHT22;58304;53.104;6.022;2022-07-03T09:03:15;27.70;93.70
70726;DHT22;58304;53.104;6.022;2022-07-03T09:05:41;28.00;93.60
70726;DHT22;58304;53.104;6.022;2022-07-03T09:08:08;27.70;94.20
70726;DHT22;58304;53.104;6.022;2022-07-03T09:10:34;28.20;93.00
70726;DHT22;58304;53.104;6.022;2022-07-03T09:13:00;28.40;93.20
70726;DHT22;58304;53.104;6.022;2022-07-03T09:15:25;28.70;92.80
70726;DHT22;58304;53.104;6.022;2022-07-03T09:18:05;29.10;91.80
70726;DHT22;58304;53.104;6.022;2022-07-03T09:20:33;29.40;92.90
70726;DHT22;58304;53.104;6.022;2022-07-03T09:23:20;29.20;91.40
70726;DHT22;58304;53.104;6.022;2022-07-03T09:25:59;29.10;90.90
70726;DHT22;58304;53.104;6.022;2022-07-03T09:28:42;28.80;91.30
70726;DHT22;58304;53.104;6.022;2022-07-03T09:31:15;29.40;90.60
70726;DHT22;58304;53.104;6.022;2022-07-03T09:36:37;29.70;91.10
70726;DHT22;58304;53.104;6.022;2022-07-03T09:39:34;29.70;90.90
70726;DHT22;58304;53.104;6.022;2022-07-03T09:42:03;29.00;88.60
70726;DHT22;58304;53.104;6.022;2022-07-03T09:44:39;29.00;90.30
70726;DHT22;58304;53.104;6.022;2022-07-03T09:47:24;29.30;90.00
70726;DHT22;58304;53.104;6.022;2022-07-03T09:54:56;29.60;89.80
70726;DHT22;58304;53.104;6.022;2022-07-03T09:57:23;29.50;86.50
70726;DHT22;58304;53.104;6.022;2022-07-03T09:59:49;28.90;86.70
70726;DHT22;58304;53.104;6.022;2022-07-03T10:02:14;28.30;87.40
70726;DHT22;58304;53.104;6.022;2022-07-03T10:04:40;27.90;88.20
70726;DHT22;58304;53.104;6.022;2022-07-03T10:07:06;27.60;90.00
70726;DHT22;58304;53.104;6.022;2022-07-03T10:09:34;27.30;90.50
70726;DHT22;58304;53.104;6.022;2022-07-03T10:12:01;27.60;91.20
70726;DHT22;58304;53.104;6.022;2022-07-03T10:14:29;28.20;90.80
70726;DHT22;58304;53.104;6.022;2022-07-03T10:16:56;28.50;90.40
70726;DHT22;58304;53.104;6.022;2022-07-03T10:19:26;28.60;87.70
70726;DHT22;58304;53.104;6.022;2022-07-03T10:22:01;28.10;88.80
70726;DHT22;58304;53.104;6.022;2022-07-03T10:24:31;27.70;90.10
70726;DHT22;58304;53.104;6.022;2022-07-03T10:26:58;27.70;91.20
70726;DHT22;58304;53.104;6.022;2022-07-03T10:29:26;27.20;92.40
70726;DHT22;58304;53.104;6.022;2022-07-03T10:34:42;27.80;92.90
70726;DHT22;58304;53.104;6.022;2022-07-03T10:37:14;27.90;93.00
70726;DHT22;58304;53.104;6.022;2022-07-03T10:42:31;27.60;93.90
70726;DHT22;58304;53.104;6.022;2022-07-03T10:46:09;27.60;92.80
70726;DHT22;58304;53.104;6.022;2022-07-03T10:58:09;27.20;94.30
70726;DHT22;58304;53.104;6.022;2022-07-03T11:22:34;26.60;96.60
70726;DHT22;58304;53.104;6.022;2022-07-03T11:25:45;26.60;97.40
70726;DHT22;58304;53.104;6.022;2022-07-03T11:31:28;27.60;95.40
70726;DHT22;58304;53.104;6.022;2022-07-03T11:33:57;27.70;94.50
70726;DHT22;58304;53.104;6.022;2022-07-03T11:51:01;27.70;94.20
70726;DHT22;58304;53.104;6.022;2022-07-03T11:56:58;27.60;93.20
70726;DHT22;58304;53.104;6.022;2022-07-03T12:00:09;27.90;93.70
70726;DHT22;58304;53.104;6.022;2022-07-03T12:03:03;27.60;94.80
70726;DHT22;58304;53.104;6.022;2022-07-03T12:15:24;26.40;95.70
70726;DHT22;58304;53.104;6.022;2022-07-03T12:17:49;27.00;95.50
70726;DHT22;58304;53.104;6.022;2022-07-03T12:20:19;26.90;96.20
70726;DHT22;58304;53.104;6.022;2022-07-03T12:22:48;26.70;95.60
70726;DHT22;58304;53.104;6.022;2022-07-03T12:25:14;26.20;95.80
70726;DHT22;58304;53.104;6.022;2022-07-03T12:27:44;25.80;96.10
70726;DHT22;58304;53.104;6.022;2022-07-03T12:30:16;26.10;96.50
70726;DHT22;58304;53.104;6.022;2022-07-03T12:32:45;26.60;96.60
70726;DHT22;58304;53.104;6.022;2022-07-03T12:41:14;27.40;94.60
70726;DHT22;58304;53.104;6.022;2022-07-03T12:43:53;27.00;94.40
70726;DHT22;58304;53.104;6.022;2022-07-03T12:49:12;26.10;95.20
70726;DHT22;58304;53.104;6.022;2022-07-03T12:52:14;26.10;95.20
70726;DHT22;58304;53.104;6.022;2022-07-03T12:55:02;25.80;95.20
70726;DHT22;58304;53.104;6.022;2022-07-03T12:57:37;25.60;95.60
70726;DHT22;58304;53.104;6.022;2022-07-03T13:00:22;25.30;95.70
70726;DHT22;58304;53.104;6.022;2022-07-03T13:03:03;25.10;96.00
70726;DHT22;58304;53.104;6.022;2022-07-03T13:05:41;24.90;96.70
70726;DHT22;58304;53.104;6.022;2022-07-03T13:10:43;24.80;97.60
70726;DHT22;58304;53.104;6.022;2022-07-03T13:13:51;24.70;97.40
70726;DHT22;58304;53.104;6.022;2022-07-03T13:16:44;24.60;96.90
70726;DHT22;58304;53.104;6.022;2022-07-03T13:19:17;24.40;96.80
70726;DHT22;58304;53.104;6.022;2022-07-03T13:21:43;24.00;96.70
70726;DHT22;58304;53.104;6.022;2022-07-03T13:24:10;23.80;97.40
70726;DHT22;58304;53.104;6.022;2022-07-03T13:26:37;23.50;97.50
70726;DHT22;58304;53.104;6.022;2022-07-03T13:29:03;23.40;97.80
70726;DHT22;58304;53.104;6.022;2022-07-03T13:31:29;23.30;98.20
70726;DHT22;58304;53.104;6.022;2022-07-03T13:33:56;23.20;98.90
70726;DHT22;58304;53.104;6.022;2022-07-03T13:36:22;23.10;99.90
70726;DHT22;58304;53.104;6.022;2022-07-03T13:38:48;22.90;99.90
70726;DHT22;58304;53.104;6.022;2022-07-03T13:41:14;22.80;99.90
70726;DHT22;58304;53.104;6.022;2022-07-03T13:43:40;22.70;99.90
70726;DHT22;58304;53.104;6.022;2022-07-03T13:46:05;22.70;99.90
70726;DHT22;58304;53.104;6.022;2022-07-03T13:48:32;22.50;99.90
70726;DHT22;58304;53.104;6.022;2022-07-03T13:50:58;22.50;99.90
70726;DHT22;58304;53.104;6.022;2022-07-03T13:53:23;22.20;99.90
70726;DHT22;58304;53.104;6.022;2022-07-03T13:55:49;22.00;99.90
70726;DHT22;58304;53.104;6.022;2022-07-03T13:58:15;21.80;99.90
70726;DHT22;58304;53.104;6.022;2022-07-03T14:00:40;21.60;99.90
70726;DHT22;58304;53.104;6.022;2022-07-03T14:03:06;21.50;99.90
70726;DHT22;58304;53.104;6.022;2022-07-03T14:05:31;21.10;99.90
70726;DHT22;58304;53.104;6.022;2022-07-03T14:07:57;20.90;99.90
70726;DHT22;58304;53.104;6.022;2022-07-03T14:10:23;20.50;99.90
70726;DHT22;58304;53.104;6.022;2022-07-03T14:12:51;20.50;99.90
70726;DHT22;58304;53.104;6.022;2022-07-03T14:15:16;20.60;99.90
70726;DHT22;58304;53.104;6.022;2022-07-03T14:17:42;20.60;99.90
70726;DHT22;58304;53.104;6.022;2022-07-03T14:20:09;20.30;99.90
70726;DHT22;58304;53.104;6.022;2022-07-03T14:22:35;20.20;99.90
70726;DHT22;58304;53.104;6.022;2022-07-03T14:25:01;20.40;99.90
70726;DHT22;58304;53.104;6.022;2022-07-03T14:27:26;20.40;99.90
70726;DHT22;58304;53.104;6.022;2022-07-03T14:30:11;20.50;99.90
70726;DHT22;58304;53.104;6.022;2022-07-03T14:32:55;20.80;99.90
70726;DHT22;58304;53.104;6.022;2022-07-03T14:35:21;21.10;99.90
70726;DHT22;58304;53.104;6.022;2022-07-03T14:37:47;21.20;99.90
70726;DHT22;58304;53.104;6.022;2022-07-03T14:40:12;21.40;99.90
70726;DHT22;58304;53.104;6.022;2022-07-03T14:42:38;21.70;99.90
70726;DHT22;58304;53.104;6.022;2022-07-03T14:45:04;21.90;99.90
70726;DHT22;58304;53.104;6.022;2022-07-03T14:47:30;21.80;99.90
70726;DHT22;58304;53.104;6.022;2022-07-03T14:49:56;21.70;99.90
70726;DHT22;58304;53.104;6.022;2022-07-03T14:52:21;21.70;99.90
70726;DHT22;58304;53.104;6.022;2022-07-03T14:54:47;21.70;99.90
70726;DHT22;58304;53.104;6.022;2022-07-03T15:00:05;21.60;99.90
70726;DHT22;58304;53.104;6.022;2022-07-03T15:03:04;21.50;99.90
70726;DHT22;58304;53.104;6.022;2022-07-03T15:05:40;21.20;99.90
70726;DHT22;58304;53.104;6.022;2022-07-03T15:10:35;21.10;99.90
70726;DHT22;58304;53.104;6.022;2022-07-03T15:13:03;21.00;99.90
70726;DHT22;58304;53.104;6.022;2022-07-03T15:15:30;20.80;99.90
70726;DHT22;58304;53.104;6.022;2022-07-03T15:18:02;20.60;99.90
70726;DHT22;58304;53.104;6.022;2022-07-03T15:20:34;20.50;99.90
70726;DHT22;58304;53.104;6.022;2022-07-03T15:23:01;20.40;99.90
70726;DHT22;58304;53.104;6.022;2022-07-03T15:25:32;20.20;99.90
70726;DHT22;58304;53.104;6.022;2022-07-03T15:27:58;20.20;99.90
70726;DHT22;58304;53.104;6.022;2022-07-03T15:30:25;20.00;99.90
70726;DHT22;58304;53.104;6.022;2022-07-03T15:32:52;20.00;99.90
70726;DHT22;58304;53.104;6.022;2022-07-03T15:35:19;19.90;99.90
70726;DHT22;58304;53.104;6.022;2022-07-03T15:38:13;19.90;99.90
70726;DHT22;58304;53.104;6.022;2022-07-03T15:49:22;19.70;99.90
70726;DHT22;58304;53.104;6.022;2022-07-03T15:54:45;19.90;99.90
70726;DHT22;58304;53.104;6.022;2022-07-03T16:00:00;19.90;99.90
70726;DHT22;58304;53.104;6.022;2022-07-03T16:02:36;19.80;99.90
70726;DHT22;58304;53.104;6.022;2022-07-03T16:05:10;19.90;99.90
70726;DHT22;58304;53.104;6.022;2022-07-03T16:07:39;19.80;99.90
70726;DHT22;58304;53.104;6.022;2022-07-03T16:10:07;19.70;99.90
70726;DHT22;58304;53.104;6.022;2022-07-03T16:12:34;19.80;99.90
70726;DHT22;58304;53.104;6.022;2022-07-03T16:15:01;19.80;99.90
70726;DHT22;58304;53.104;6.022;2022-07-03T16:17:27;19.80;99.90
70726;DHT22;58304;53.104;6.022;2022-07-03T16:19:53;19.90;99.90
70726;DHT22;58304;53.104;6.022;2022-07-03T16:22:19;20.20;99.90
70726;DHT22;58304;53.104;6.022;2022-07-03T16:24:46;20.40;99.90
70726;DHT22;58304;53.104;6.022;2022-07-03T16:27:16;20.50;99.90
70726;DHT22;58304;53.104;6.022;2022-07-03T16:29:43;20.70;99.90
70726;DHT22;58304;53.104;6.022;2022-07-03T16:32:15;20.90;99.90
70726;DHT22;58304;53.104;6.022;2022-07-03T16:37:18;20.90;99.90
70726;DHT22;58304;53.104;6.022;2022-07-03T16:39:48;20.90;99.90
70726;DHT22;58304;53.104;6.022;2022-07-03T16:42:16;20.80;99.90
70726;DHT22;58304;53.104;6.022;2022-07-03T16:44:45;20.70;99.90
70726;DHT22;58304;53.104;6.022;2022-07-03T16:47:13;20.80;99.90
70726;DHT22;58304;53.104;6.022;2022-07-03T16:49:40;20.60;99.90
70726;DHT22;58304;53.104;6.022;2022-07-03T16:52:08;20.50;99.90
70726;DHT22;58304;53.104;6.022;2022-07-03T16:54:35;20.40;99.90
70726;DHT22;58304;53.104;6.022;2022-07-03T16:57:06;20.40;99.90
70726;DHT22;58304;53.104;6.022;2022-07-03T16:59:32;20.40;99.90
70726;DHT22;58304;53.104;6.022;2022-07-03T17:01:59;20.50;99.90
70726;DHT22;58304;53.104;6.022;2022-07-03T17:04:29;20.60;99.90
70726;DHT22;58304;53.104;6.022;2022-07-03T17:06:55;20.70;99.90
70726;DHT22;58304;53.104;6.022;2022-07-03T17:09:22;20.90;99.90
70726;DHT22;58304;53.104;6.022;2022-07-03T17:11:49;20.80;99.90
70726;DHT22;58304;53.104;6.022;2022-07-03T17:14:15;20.70;99.90
70726;DHT22;58304;53.104;6.022;2022-07-03T17:16:50;20.60;99.90
70726;DHT22;58304;53.104;6.022;2022-07-03T17:19:23;20.40;99.90
70726;DHT22;58304;53.104;6.022;2022-07-03T17:21:50;20.20;99.90
70726;DHT22;58304;53.104;6.022;2022-07-03T17:24:20;20.00;99.90
70726;DHT22;58304;53.104;6.022;2022-07-03T17:26:50;19.90;99.90
70726;DHT22;58304;53.104;6.022;2022-07-03T17:29:33;19.80;99.90
70726;DHT22;58304;53.104;6.022;2022-07-03T17:32:03;19.70;99.90
70726;DHT22;58304;53.104;6.022;2022-07-03T17:34:29;19.80;99.90
70726;DHT22;58304;53.104;6.022;2022-07-03T17:36:57;19.90;99.90
70726;DHT22;58304;53.104;6.022;2022-07-03T17:39:26;20.00;99.90
70726;DHT22;58304;53.104;6.022;2022-07-03T17:41:54;20.20;99.90
70726;DHT22;58304;53.104;6.022;2022-07-03T17:44:21;20.30;99.90
70726;DHT22;58304;53.104;6.022;2022-07-03T17:46:47;20.20;99.90
70726;DHT22;58304;53.104;6.022;2022-07-03T17:49:14;20.10;99.90
70726;DHT22;58304;53.104;6.022;2022-07-03T17:51:41;20.10;99.90
70726;DHT22;58304;53.104;6.022;2022-07-03T17:54:10;20.00;99.90
70726;DHT22;58304;53.104;6.022;2022-07-03T17:56:38;19.90;99.90
70726;DHT22;58304;53.104;6.022;2022-07-03T17:59:05;19.90;99.90
70726;DHT22;58304;53.104;6.022;2022-07-03T18:01:32;19.80;99.90
70726;DHT22;58304;53.104;6.022;2022-07-03T18:03:57;19.80;99.90
70726;DHT22;58304;53.104;6.022;2022-07-03T18:06:26;19.70;99.90
70726;DHT22;58304;53.104;6.022;2022-07-03T18:09:06;19.70;99.90
70726;DHT22;58304;53.104;6.022;2022-07-03T18:14:22;19.40;99.90
70726;DHT22;58304;53.104;6.022;2022-07-03T18:16:52;19.40;99.90
70726;DHT22;58304;53.104;6.022;2022-07-03T18:19:23;19.40;99.90
70726;DHT22;58304;53.104;6.022;2022-07-03T18:21:51;19.40;99.90
70726;DHT22;58304;53.104;6.022;2022-07-03T18:24:23;19.30;99.90
70726;DHT22;58304;53.104;6.022;2022-07-03T18:26:54;19.40;99.90
70726;DHT22;58304;53.104;6.022;2022-07-03T18:29:22;19.40;99.90
70726;DHT22;58304;53.104;6.022;2022-07-03T18:31:48;19.40;99.90
70726;DHT22;58304;53.104;6.022;2022-07-03T18:34:20;19.30;99.90
70726;DHT22;58304;53.104;6.022;2022-07-03T18:36:47;19.30;99.90
70726;DHT22;58304;53.104;6.022;2022-07-03T18:39:13;19.10;99.90
70726;DHT22;58304;53.104;6.022;2022-07-03T18:41:40;19.30;99.90
70726;DHT22;58304;53.104;6.022;2022-07-03T18:44:08;19.20;99.90
70726;DHT22;58304;53.104;6.022;2022-07-03T18:46:36;19.20;99.90
70726;DHT22;58304;53.104;6.022;2022-07-03T18:49:04;19.10;99.90
70726;DHT22;58304;53.104;6.022;2022-07-03T18:54:10;19.00;99.90
70726;DHT22;58304;53.104;6.022;2022-07-03T18:57:10;19.10;99.90
70726;DHT22;58304;53.104;6.022;2022-07-03T18:59:38;19.10;99.90
70726;DHT22;58304;53.104;6.022;2022-07-03T19:02:15;19.00;99.90
70726;DHT22;58304;53.104;6.022;2022-07-03T19:04:48;19.00;99.90
70726;DHT22;58304;53.104;6.022;2022-07-03T19:10:06;18.90;99.90
70726;DHT22;58304;53.104;6.022;2022-07-03T19:12:58;18.90;99.90
70726;DHT22;58304;53.104;6.022;2022-07-03T19:15:29;18.80;99.90
70726;DHT22;58304;53.104;6.022;2022-07-03T19:17:59;18.70;99.90
70726;DHT22;58304;53.104;6.022;2022-07-03T20:20:05;16.50;99.90
70726;DHT22;58304;53.104;6.022;2022-07-03T20:22:56;16.40;99.90
70726;DHT22;58304;53.104;6.022;2022-07-03T20:25:26;16.30;99.90
70726;DHT22;58304;53.104;6.022;2022-07-03T20:28:23;16.20;99.90
70726;DHT22;58304;53.104;6.022;2022-07-03T20:40:40;16.00;99.90
70726;DHT22;58304;53.104;6.022;2022-07-03T20:48:48;15.80;99.90
70726;DHT22;58304;53.104;6.022;2022-07-03T20:51:14;15.70;99.90
70726;DHT22;58304;53.104;6.022;2022-07-03T20:53:39;15.50;99.90
70726;DHT22;58304;53.104;6.022;2022-07-03T20:56:06;15.50;99.90
70726;DHT22;58304;53.104;6.022;2022-07-03T20:58:31;15.50;99.90
70726;DHT22;58304;53.104;6.022;2022-07-03T21:01:09;15.40;99.90
70726;DHT22;58304;53.104;6.022;2022-07-03T21:03:36;15.30;99.90
70726;DHT22;58304;53.104;6.022;2022-07-03T21:06:03;15.20;99.90
70726;DHT22;58304;53.104;6.022;2022-07-03T21:08:48;15.20;99.90
70726;DHT22;58304;53.104;6.022;2022-07-03T21:11:17;15.20;99.90
70726;DHT22;58304;53.104;6.022;2022-07-03T21:14:10;15.10;99.90
70726;DHT22;58304;53.104;6.022;2022-07-03T21:16:41;15.10;99.90
70726;DHT22;58304;53.104;6.022;2022-07-03T21:19:16;15.10;99.90
70726;DHT22;58304;53.104;6.022;2022-07-03T21:21:45;15.10;99.90
70726;DHT22;58304;53.104;6.022;2022-07-03T21:24:11;15.10;99.90
70726;DHT22;58304;53.104;6.022;2022-07-03T21:26:42;15.10;99.90
70726;DHT22;58304;53.104;6.022;2022-07-03T21:29:09;15.10;99.90
70726;DHT22;58304;53.104;6.022;2022-07-03T21:31:41;15.10;99.90
70726;DHT22;58304;53.104;6.022;2022-07-03T21:34:09;15.10;99.90
70726;DHT22;58304;53.104;6.022;2022-07-03T21:36:53;15.00;99.90
70726;DHT22;58304;53.104;6.022;2022-07-03T21:39:24;14.90;99.90
70726;DHT22;58304;53.104;6.022;2022-07-03T21:41:52;14.90;99.90
70726;DHT22;58304;53.104;6.022;2022-07-03T21:44:21;14.90;99.90
70726;DHT22;58304;53.104;6.022;2022-07-03T21:46:55;14.70;99.90
70726;DHT22;58304;53.104;6.022;2022-07-03T22:04:02;14.50;99.90
70726;DHT22;58304;53.104;6.022;2022-07-03T22:06:30;14.50;99.90
70726;DHT22;58304;53.104;6.022;2022-07-03T22:08:57;14.50;99.90
70726;DHT22;58304;53.104;6.022;2022-07-03T22:11:23;14.50;99.90
70726;DHT22;58304;53.104;6.022;2022-07-03T22:13:51;14.40;99.90
70726;DHT22;58304;53.104;6.022;2022-07-03T22:16:20;14.30;99.90
70726;DHT22;58304;53.104;6.022;2022-07-03T22:18:49;14.20;99.90
70726;DHT22;58304;53.104;6.022;2022-07-03T22:21:16;14.10;99.90
70726;DHT22;58304;53.104;6.022;2022-07-03T22:23:47;14.10;99.90
70726;DHT22;58304;53.104;6.022;2022-07-03T22:26:17;14.00;99.90
70726;DHT22;58304;53.104;6.022;2022-07-03T22:28:51;14.00;99.90
70726;DHT22;58304;53.104;6.022;2022-07-03T22:31:25;14.00;99.90
70726;DHT22;58304;53.104;6.022;2022-07-03T22:34:27;14.10;99.90
70726;DHT22;58304;53.104;6.022;2022-07-03T22:37:04;14.10;99.90
70726;DHT22;58304;53.104;6.022;2022-07-03T22:39:44;14.20;99.90
70726;DHT22;58304;53.104;6.022;2022-07-03T22:42:16;14.10;99.90
70726;DHT22;58304;53.104;6.022;2022-07-03T22:45:05;14.20;99.90
70726;DHT22;58304;53.104;6.022;2022-07-03T22:48:11;14.10;99.90
70726;DHT22;58304;53.104;6.022;2022-07-03T22:50:56;14.10;99.90
70726;DHT22;58304;53.104;6.022;2022-07-03T22:53:48;14.10;99.90
70726;DHT22;58304;53.104;6.022;2022-07-03T22:56:16;14.10;99.90
70726;DHT22;58304;53.104;6.022;2022-07-03T22:59:03;14.10;99.90
70726;DHT22;58304;53.104;6.022;2022-07-03T23:01:30;14.10;99.90
70726;DHT22;58304;53.104;6.022;2022-07-03T23:03:56;14.10;99.90
70726;DHT22;58304;53.104;6.022;2022-07-03T23:06:45;14.10;99.90
70726;DHT22;58304;53.104;6.022;2022-07-03T23:09:11;14.00;99.90
70726;DHT22;58304;53.104;6.022;2022-07-03T23:11:56;13.90;99.90
70726;DHT22;58304;53.104;6.022;2022-07-03T23:14:30;13.90;99.90
70726;DHT22;58304;53.104;6.022;2022-07-03T23:17:05;13.80;99.90
70726;DHT22;58304;53.104;6.022;2022-07-03T23:19:40;13.80;99.90
70726;DHT22;58304;53.104;6.022;2022-07-03T23:25:42;13.80;99.90
70726;DHT22;58304;53.104;6.022;2022-07-03T23:28:27;13.90;99.90
70726;DHT22;58304;53.104;6.022;2022-07-03T23:31:08;13.80;99.90
70726;DHT22;58304;53.104;6.022;2022-07-03T23:34:19;13.70;99.90
70726;DHT22;58304;53.104;6.022;2022-07-03T23:36:46;13.70;99.90
70726;DHT22;58304;53.104;6.022;2022-07-03T23:39:11;13.70;99.90
70726;DHT22;58304;53.104;6.022;2022-07-03T23:41:37;13.60;99.90
70726;DHT22;58304;53.104;6.022;2022-07-03T23:44:11;13.60;99.90
70726;DHT22;58304;53.104;6.022;2022-07-03T23:46:42;13.60;99.90
70726;DHT22;58304;53.104;6.022;2022-07-03T23:49:30;13.60;99.90
70726;DHT22;58304;53.104;6.022;2022-07-03T23:52:16;13.60;99.90
70726;DHT22;58304;53.104;6.022;2022-07-03T23:54:51;13.60;99.90
70726;DHT22;58304;53.104;6.022;2022-07-03T23:57:28;13.70;99.90
